Time;durP1;ratioP1;P1;durP2;ratioP2;P2;SDS_P1;SDS_P2;PMS_P1;PMS_P2;Temp;Humidity;BMP_temperature;BMP_pressure;BME280_temperature;BME280_humidity;BME280_pressure;Samples;Min_cycle;Max_cycle;Signal;HPM_P1;HPM_P2
2023/10/14 00:00:28;;;;;;;4.93;1.42;;;13.80;99.90;;;;;;4860026;29;20126;-92
2023/10/14 00:02:56;;;;;;;6.88;1.85;;;13.70;99.90;;;;;;4841140;29;20132;-92
2023/10/14 00:05:22;;;;;;;4.57;1.48;;;13.70;99.90;;;;;;4843022;29;20486;-91
2023/10/14 00:07:52;;;;;;;7.93;1.75;;;13.60;99.90;;;;;;4859530;29;20127;-92
2023/10/14 00:10:22;;;;;;;5.32;1.40;;;13.60;99.90;;;;;;4842214;29;20037;-90
2023/10/14 00:12:53;;;;;;;5.32;1.45;;;13.50;99.90;;;;;;4857659;29;20333;-91
2023/10/14 00:15:21;;;;;;;4.80;1.52;;;13.40;99.90;;;;;;4859639;29;20037;-89
2023/10/14 00:17:49;;;;;;;5.53;1.45;;;;;;;;;;4854557;29;20235;-91
2023/10/14 00:20:17;;;;;;;6.30;1.30;;;13.30;99.90;;;;;;4851984;29;20049;-92
2023/10/14 00:22:44;;;;;;;6.95;1.77;;;13.30;99.90;;;;;;4859700;29;20051;-92
2023/10/14 00:25:18;;;;;;;7.70;1.80;;;13.30;99.90;;;;;;4845316;29;20044;-89
2023/10/14 00:27:45;;;;;;;4.82;1.35;;;13.20;99.90;;;;;;4872797;29;20052;-91
2023/10/14 00:30:11;;;;;;;7.50;1.70;;;13.20;99.90;;;;;;4855639;29;20052;-91
2023/10/14 00:32:38;;;;;;;5.57;1.45;;;13.20;99.90;;;;;;4855795;29;20633;-90
2023/10/14 00:35:09;;;;;;;7.90;1.60;;;13.20;99.90;;;;;;4840808;29;20490;-90
2023/10/14 00:37:35;;;;;;;8.65;2.05;;;13.10;99.90;;;;;;4828328;29;20406;-89
2023/10/14 00:40:10;;;;;;;5.00;1.45;;;13.10;99.90;;;;;;4839069;29;20937;-91
2023/10/14 00:42:37;;;;;;;5.72;1.48;;;13.00;99.90;;;;;;4855671;29;20032;-91
2023/10/14 00:45:12;;;;;;;6.85;1.67;;;13.00;99.90;;;;;;4851201;29;20538;-90
2023/10/14 00:47:40;;;;;;;5.63;1.58;;;13.10;99.90;;;;;;4845120;29;20045;-89
2023/10/14 00:52:57;;;;;;;4.43;1.50;;;12.90;99.90;;;;;;4876065;29;20072;-90
2023/10/14 00:55:34;;;;;;;7.45;1.65;;;12.90;99.90;;;;;;4862351;29;20417;-90
2023/10/14 00:58:00;;;;;;;7.68;1.75;;;12.90;99.90;;;;;;4861639;29;20108;-89
2023/10/14 01:00:45;;;;;;;8.95;1.92;;;13.80;99.90;;;;;;4845409;29;20493;-90
2023/10/14 01:03:15;;;;;;;6.93;1.60;;;12.60;99.90;;;;;;4878148;29;20047;-89
2023/10/14 01:05:40;;;;;;;6.85;1.80;;;12.80;99.90;;;;;;4878960;29;20040;-89
2023/10/14 01:08:15;;;;;;;6.97;1.60;;;12.80;99.90;;;;;;4858932;29;20426;-90
2023/10/14 01:10:42;;;;;;;8.57;1.92;;;12.70;99.90;;;;;;4858933;29;20120;-91
2023/10/14 01:13:14;;;;;;;8.15;1.95;;;12.70;99.90;;;;;;4831335;29;20060;-90
2023/10/14 01:15:47;;;;;;;7.28;1.85;;;12.60;99.90;;;;;;4846341;29;21630;-90
2023/10/14 01:18:14;;;;;;;7.45;1.90;;;12.60;99.90;;;;;;4859950;29;20064;-90
2023/10/14 01:20:44;;;;;;;7.63;2.13;;;12.50;99.90;;;;;;4875726;29;20076;-90
2023/10/14 01:23:14;;;;;;;9.13;2.00;;;12.50;99.90;;;;;;4855722;29;20491;-90
2023/10/14 01:25:52;;;;;;;10.45;2.15;;;12.40;99.90;;;;;;4841796;29;20053;-90
2023/10/14 01:28:21;;;;;;;7.97;1.80;;;13.10;99.90;;;;;;4819504;29;20057;-90
2023/10/14 01:31:05;;;;;;;8.00;1.92;;;;;;;;;;4821261;29;20518;-90
2023/10/14 01:33:35;;;;;;;7.25;1.70;;;12.30;99.90;;;;;;4858744;29;20465;-90
2023/10/14 01:36:02;;;;;;;8.48;1.77;;;12.30;99.90;;;;;;4843047;29;20040;-90
2023/10/14 01:38:30;;;;;;;6.50;1.58;;;12.30;99.90;;;;;;4826011;29;20045;-90
2023/10/14 01:40:56;;;;;;;6.15;1.67;;;12.20;99.90;;;;;;4827501;29;20037;-90
2023/10/14 01:43:24;;;;;;;6.35;1.52;;;12.20;99.90;;;;;;4826669;29;20052;-90
2023/10/14 01:46:00;;;;;;;7.65;1.90;;;12.20;99.90;;;;;;4841839;29;20191;-90
2023/10/14 01:48:30;;;;;;;6.30;1.90;;;12.10;99.90;;;;;;4829928;29;20563;-90
2023/10/14 01:50:57;;;;;;;9.52;2.58;;;12.10;99.90;;;;;;4828005;29;20510;-90
2023/10/14 01:53:35;;;;;;;6.00;1.92;;;12.00;99.90;;;;;;4843726;29;20402;-90
2023/10/14 01:56:02;;;;;;;6.72;1.73;;;12.00;99.90;;;;;;4855724;29;20053;-90
2023/10/14 01:58:30;;;;;;;6.80;2.03;;;12.00;99.90;;;;;;4828401;29;20369;-90
2023/10/14 02:01:15;;;;;;;9.75;2.17;;;11.90;99.90;;;;;;4857640;29;20033;-90
2023/10/14 02:03:49;;;;;;;8.35;1.88;;;11.90;99.90;;;;;;4857352;29;20495;-90
2023/10/14 02:06:19;;;;;;;6.05;1.63;;;11.90;99.90;;;;;;4838886;29;20506;-87
2023/10/14 02:08:47;;;;;;;9.20;2.28;;;11.90;99.90;;;;;;4855876;29;20426;-90
2023/10/14 02:11:16;;;;;;;8.65;1.88;;;11.80;99.90;;;;;;4843091;29;20055;-90
2023/10/14 02:13:42;;;;;;;7.03;1.75;;;11.80;99.90;;;;;;4843463;29;20422;-89
2023/10/14 02:16:08;;;;;;;8.43;1.83;;;11.80;99.90;;;;;;4828649;29;20091;-89
2023/10/14 02:18:38;;;;;;;8.98;2.63;;;11.80;99.90;;;;;;4840186;29;20060;-89
2023/10/14 02:21:11;;;;;;;7.00;1.67;;;11.70;99.90;;;;;;4840552;29;20045;-88
2023/10/14 02:23:45;;;;;;;6.25;1.70;;;11.70;99.90;;;;;;4843332;29;20147;-89
2023/10/14 02:26:24;;;;;;;7.82;2.13;;;11.70;99.90;;;;;;4825743;29;20074;-88
2023/10/14 02:28:52;;;;;;;8.30;1.80;;;11.60;99.90;;;;;;4824887;29;20400;-88
2023/10/14 02:31:36;;;;;;;5.18;1.65;;;11.60;99.90;;;;;;4825112;29;20376;-90
2023/10/14 02:34:08;;;;;;;6.63;1.60;;;11.50;99.90;;;;;;4860140;29;20048;-90
2023/10/14 02:36:47;;;;;;;7.97;1.83;;;11.50;99.90;;;;;;4841258;29;20044;-89
2023/10/14 02:39:17;;;;;;;8.48;2.10;;;11.40;99.90;;;;;;4841571;29;20129;-89
2023/10/14 02:42:29;;;;;;;9.65;2.20;;;11.40;99.90;;;;;;4826197;29;20487;-90
2023/10/14 02:44:59;;;;;;;6.32;1.90;;;11.40;99.90;;;;;;4837960;29;20103;-89
2023/10/14 02:47:32;;;;;;;7.93;2.22;;;11.40;99.90;;;;;;4856594;29;20044;-89
2023/10/14 02:50:05;;;;;;;9.68;2.08;;;11.40;99.90;;;;;;4827001;29;20078;-89
2023/10/14 02:52:31;;;;;;;10.32;2.10;;;11.30;99.90;;;;;;4836996;29;20051;-89
2023/10/14 02:57:42;;;;;;;7.35;1.80;;;11.30;99.90;;;;;;4844036;29;20041;-89
2023/10/14 03:00:12;;;;;;;8.85;2.05;;;11.30;99.90;;;;;;4841326;29;20037;-89
2023/10/14 03:02:54;;;;;;;7.32;1.80;;;11.20;99.90;;;;;;4826216;29;20105;-90
2023/10/14 03:05:35;;;;;;;7.43;1.75;;;11.20;99.90;;;;;;4827156;29;20037;-89
2023/10/14 03:08:12;;;;;;;8.57;2.15;;;11.20;99.90;;;;;;4840550;29;20049;-89
2023/10/14 03:10:55;;;;;;;6.47;1.90;;;11.20;99.90;;;;;;4857642;29;20052;-89
2023/10/14 03:13:22;;;;;;;9.60;2.13;;;11.20;99.90;;;;;;4841904;29;20052;-88
2023/10/14 03:15:52;;;;;;;7.45;1.67;;;11.20;99.90;;;;;;4824856;29;20468;-88
2023/10/14 03:18:19;;;;;;;6.75;2.03;;;13.30;99.90;;;;;;4840239;29;20052;-90
2023/10/14 03:21:00;;;;;;;8.05;1.85;;;11.20;99.90;;;;;;4837548;29;20044;-89
2023/10/14 03:23:27;;;;;;;6.85;2.20;;;11.20;99.90;;;;;;4833244;29;20147;-89
2023/10/14 03:26:14;;;;;;;11.50;2.22;;;11.20;99.90;;;;;;4841522;29;20052;-90
2023/10/14 03:28:44;;;;;;;6.90;1.70;;;11.20;99.90;;;;;;4876089;29;20663;-89
2023/10/14 03:31:15;;;;;;;9.65;2.15;;;11.20;99.90;;;;;;4876078;29;20144;-89
2023/10/14 03:33:44;;;;;;;6.70;1.90;;;11.10;99.90;;;;;;4858838;29;20044;-89
2023/10/14 03:36:17;;;;;;;8.00;1.90;;;11.10;99.90;;;;;;4842623;29;20041;-89
2023/10/14 03:38:55;;;;;;;8.10;1.88;;;11.10;99.90;;;;;;4871876;29;20036;-89
2023/10/14 03:41:28;;;;;;;5.03;1.50;;;11.00;99.90;;;;;;4859342;29;20115;-88
2023/10/14 03:43:58;;;;;;;7.82;2.35;;;11.00;99.90;;;;;;4843389;29;20145;-88
2023/10/14 03:46:41;;;;;;;7.85;1.92;;;11.00;99.90;;;;;;4843239;29;20459;-89
2023/10/14 03:49:11;;;;;;;6.70;2.10;;;11.00;99.90;;;;;;4857743;29;20043;-88
2023/10/14 03:51:38;;;;;;;7.47;2.05;;;11.00;99.90;;;;;;4857951;29;20044;-89
2023/10/14 03:54:12;;;;;;;10.90;1.92;;;11.00;99.90;;;;;;4842564;29;20040;-89
2023/10/14 03:56:45;;;;;;;7.13;1.60;;;11.00;99.90;;;;;;4872798;29;20108;-88
2023/10/14 03:59:18;;;;;;;;;;;11.00;99.90;;;;;;4859447;29;20044;-89
2023/10/14 04:01:45;;;;;;;7.93;2.08;;;11.00;99.90;;;;;;4875472;29;20296;-89
2023/10/14 04:04:21;;;;;;;8.23;1.55;;;10.90;99.90;;;;;;4842170;29;20087;-89
2023/10/14 04:12:37;;;;;;;10.27;2.20;;;10.90;99.90;;;;;;4874664;29;20140;-91
2023/10/14 04:17:38;;;;;;;8.50;2.15;;;11.00;99.90;;;;;;4857851;29;20111;-89
2023/10/14 04:22:31;;;;;;;6.65;1.70;;;11.00;99.90;;;;;;4861440;29;20060;-89
2023/10/14 04:35:31;;;;;;;7.20;2.22;;;11.00;99.90;;;;;;4891508;29;20478;-89
2023/10/14 04:38:01;;;;;;;9.20;2.10;;;11.00;99.90;;;;;;4877657;29;20060;-89
2023/10/14 04:45:45;;;;;;;;;;;11.10;99.90;;;;;;4873413;29;20041;-89
2023/10/14 04:48:17;;;;;;;8.85;1.95;;;12.60;99.90;;;;;;4861495;29;19978;-88
2023/10/14 04:50:44;;;;;;;7.82;1.77;;;11.10;99.90;;;;;;4844795;29;20529;-89
2023/10/14 04:53:13;;;;;;;7.95;1.73;;;11.10;99.90;;;;;;4849134;29;20039;-90
2023/10/14 04:55:44;;;;;;;7.85;1.90;;;11.10;99.90;;;;;;4861770;29;20119;-89
2023/10/14 05:00:43;;;;;;;7.10;2.05;;;11.10;99.90;;;;;;4857058;29;20063;-89
2023/10/14 05:03:20;;;;;;;7.88;1.92;;;11.00;99.90;;;;;;4875048;29;20037;-89
2023/10/14 05:05:52;;;;;;;9.38;2.33;;;;;;;;;;4874960;29;20521;-89
2023/10/14 05:08:21;;;;;;;6.32;1.75;;;10.90;99.90;;;;;;4859830;29;20038;-88
2023/10/14 05:10:53;;;;;;;7.70;1.95;;;10.90;99.90;;;;;;4844335;29;20048;-90
2023/10/14 05:13:25;;;;;;;8.57;1.67;;;10.90;99.90;;;;;;4861839;29;20036;-89
2023/10/14 05:16:03;;;;;;;6.45;1.80;;;10.90;99.90;;;;;;4859368;29;20194;-89
2023/10/14 05:18:29;;;;;;;7.25;1.67;;;10.90;99.90;;;;;;4860597;29;20075;-89
2023/10/14 05:23:24;;;;;;;6.57;1.75;;;10.80;99.90;;;;;;4875060;29;20425;-88
2023/10/14 05:25:56;;;;;;;8.57;2.05;;;10.80;99.90;;;;;;4856909;29;20059;-88
2023/10/14 05:28:29;;;;;;;9.37;2.00;;;10.80;99.90;;;;;;4862406;29;20373;-88
2023/10/14 05:31:08;;;;;;;7.95;1.90;;;10.70;99.90;;;;;;4858385;29;20298;-90
2023/10/14 05:33:37;;;;;;;8.65;1.90;;;10.70;99.90;;;;;;4871990;29;20037;-88
2023/10/14 05:36:05;;;;;;;7.95;1.95;;;11.80;99.90;;;;;;4858202;29;20033;-89
2023/10/14 05:38:31;;;;;;;7.85;1.75;;;10.70;99.90;;;;;;4861371;29;20043;-89
2023/10/14 05:41:00;;;;;;;9.48;2.22;;;10.70;99.90;;;;;;4847187;29;20203;-89
2023/10/14 05:43:27;;;;;;;8.30;1.83;;;10.60;99.90;;;;;;4860213;29;20039;-89
2023/10/14 05:45:53;;;;;;;6.35;1.80;;;10.70;99.90;;;;;;4855973;29;20045;-88
2023/10/14 05:48:26;;;;;;;7.22;1.90;;;10.70;99.90;;;;;;4853778;29;20062;-89
2023/10/14 05:50:56;;;;;;;7.90;2.00;;;10.70;99.90;;;;;;4860269;29;20406;-89
2023/10/14 05:53:25;;;;;;;14.63;2.83;;;10.70;99.90;;;;;;4858703;29;20642;-89
2023/10/14 05:55:58;;;;;;;6.95;1.73;;;10.70;99.90;;;;;;4856158;29;20040;-89
2023/10/14 05:58:28;;;;;;;10.27;2.28;;;10.70;99.90;;;;;;4843606;29;20051;-89
2023/10/14 06:00:55;;;;;;;11.60;2.33;;;10.60;99.90;;;;;;4877972;29;20448;-89
2023/10/14 06:03:21;;;;;;;6.05;1.70;;;10.60;99.90;;;;;;4860957;29;20032;-89
2023/10/14 06:05:47;;;;;;;8.77;1.80;;;10.60;99.90;;;;;;4862022;29;20095;-90
2023/10/14 06:08:18;;;;;;;9.50;2.30;;;10.60;99.90;;;;;;4859506;29;20047;-88
2023/10/14 06:10:44;;;;;;;9.07;1.98;;;10.70;99.90;;;;;;4841177;29;20041;-88
2023/10/14 06:13:13;;;;;;;8.18;2.05;;;10.70;99.90;;;;;;4868176;29;20580;-88
2023/10/14 06:15:41;;;;;;;6.95;1.92;;;10.60;99.90;;;;;;4889639;29;20443;-89
2023/10/14 06:18:08;;;;;;;6.85;1.80;;;10.70;99.90;;;;;;4871663;29;20495;-88
2023/10/14 06:20:37;;;;;;;7.97;2.00;;;10.70;99.90;;;;;;4856383;29;20044;-87
2023/10/14 06:23:03;;;;;;;7.68;1.88;;;10.60;99.90;;;;;;4859487;29;20052;-88
2023/10/14 06:25:31;;;;;;;8.70;1.70;;;10.60;99.90;;;;;;4849961;29;20482;-88
2023/10/14 06:27:58;;;;;;;6.82;1.95;;;10.60;99.90;;;;;;4856461;29;20044;-88
2023/10/14 06:30:24;;;;;;;8.32;2.03;;;10.60;99.90;;;;;;4840589;29;20498;-88
2023/10/14 06:33:03;;;;;;;8.30;1.90;;;10.60;99.90;;;;;;4853686;29;20056;-89
2023/10/14 06:35:31;;;;;;;9.45;1.85;;;10.60;99.90;;;;;;4857236;29;20045;-89
2023/10/14 06:37:58;;;;;;;8.10;2.00;;;10.60;99.90;;;;;;4858753;29;20041;-88
2023/10/14 06:40:24;;;;;;;8.80;2.03;;;10.50;99.90;;;;;;4839853;29;20052;-89
2023/10/14 06:42:53;;;;;;;10.20;2.35;;;10.60;99.90;;;;;;4857926;29;20418;-90
2023/10/14 06:45:21;;;;;;;8.35;2.00;;;10.60;99.90;;;;;;4872220;29;20053;-88
2023/10/14 06:47:50;;;;;;;9.98;2.50;;;10.60;99.90;;;;;;4856979;29;20048;-88
2023/10/14 06:50:23;;;;;;;7.65;2.05;;;10.60;99.90;;;;;;4860161;29;20053;-90
2023/10/14 06:52:53;;;;;;;9.63;2.17;;;10.60;99.90;;;;;;4868002;29;20917;-89
2023/10/14 06:55:22;;;;;;;7.93;1.90;;;10.70;99.90;;;;;;4829623;29;20124;-89
2023/10/14 06:57:53;;;;;;;9.65;2.25;;;10.70;99.90;;;;;;4858479;29;20033;-88
2023/10/14 07:00:31;;;;;;;7.93;2.08;;;10.70;99.90;;;;;;4841391;29;20056;-89
2023/10/14 07:03:01;;;;;;;7.80;1.83;;;10.80;99.90;;;;;;4857259;29;20422;-88
2023/10/14 07:05:28;;;;;;;8.63;2.00;;;10.80;99.90;;;;;;4843836;29;20467;-88
2023/10/14 07:07:58;;;;;;;8.00;1.90;;;11.00;99.90;;;;;;4828250;29;20128;-89
2023/10/14 07:10:28;;;;;;;8.20;1.95;;;10.90;99.90;;;;;;4855615;29;20048;-89
2023/10/14 07:12:57;;;;;;;7.60;1.75;;;11.00;99.90;;;;;;4857672;29;20486;-89
2023/10/14 07:15:25;;;;;;;5.90;1.70;;;11.10;99.90;;;;;;4874250;29;20490;-88
2023/10/14 07:17:50;;;;;;;7.63;1.95;;;11.10;99.90;;;;;;4860261;29;20036;-90
2023/10/14 07:20:16;;;;;;;8.30;2.20;;;11.10;99.90;;;;;;4874154;29;20123;-89
2023/10/14 07:22:42;;;;;;;10.55;1.90;;;11.20;99.90;;;;;;4827419;29;20124;-90
2023/10/14 07:25:11;;;;;;;9.45;2.47;;;11.30;99.90;;;;;;4827739;29;20148;-91
2023/10/14 07:27:38;;;;;;;6.43;1.83;;;11.30;99.90;;;;;;4823643;29;20499;-88
2023/10/14 07:30:16;;;;;;;9.25;2.38;;;11.40;99.90;;;;;;4826507;29;20037;-88
2023/10/14 07:32:47;;;;;;;12.63;2.47;;;11.40;99.90;;;;;;4872579;29;20060;-89
2023/10/14 07:35:17;;;;;;;6.57;1.83;;;11.50;99.90;;;;;;4859341;29;20070;-90
2023/10/14 07:37:45;;;;;;;7.07;1.85;;;11.60;99.90;;;;;;4879147;29;20043;-89
2023/10/14 07:40:22;;;;;;;8.15;2.05;;;11.60;99.90;;;;;;4842307;29;20044;-90
2023/10/14 07:43:07;;;;;;;10.15;2.17;;;11.70;99.90;;;;;;4855539;29;20108;-92
2023/10/14 07:45:35;;;;;;;8.27;2.10;;;11.80;99.90;;;;;;4859228;29;20041;-91
2023/10/14 07:48:13;;;;;;;13.00;1.98;;;11.90;99.90;;;;;;4874019;29;20040;-89
2023/10/14 07:50:41;;;;;;;7.25;1.70;;;12.10;99.90;;;;;;4856769;29;20124;-94
2023/10/14 07:53:08;;;;;;;8.07;2.30;;;12.10;99.90;;;;;;4860055;29;20064;-92
2023/10/14 07:55:47;;;;;;;10.52;2.95;;;12.20;99.90;;;;;;4857702;29;20048;-91
2023/10/14 07:58:16;;;;;;;7.80;2.20;;;12.20;99.90;;;;;;4873344;29;20070;-90
2023/10/14 08:00:50;;;;;;;8.68;1.90;;;12.20;99.90;;;;;;4826421;29;20036;-91
2023/10/14 08:03:17;;;;;;;9.27;1.92;;;12.30;99.90;;;;;;4843425;29;20072;-90
2023/10/14 08:05:59;;;;;;;9.45;2.00;;;12.40;99.90;;;;;;4854816;29;20517;-91
2023/10/14 08:08:30;;;;;;;8.48;2.00;;;12.50;99.90;;;;;;4838855;29;20131;-91
2023/10/14 08:10:59;;;;;;;7.53;2.05;;;12.50;99.90;;;;;;4857117;29;20040;-90
2023/10/14 08:13:26;;;;;;;8.82;2.25;;;12.60;99.90;;;;;;4854563;29;20063;-91
2023/10/14 08:15:57;;;;;;;8.52;1.85;;;12.70;99.90;;;;;;4843688;29;20052;-90
2023/10/14 08:18:23;;;;;;;8.90;2.00;;;12.70;99.90;;;;;;4873734;29;20071;-90
2023/10/14 08:20:53;;;;;;;7.65;2.00;;;12.80;99.90;;;;;;4857375;29;20037;-91
2023/10/14 08:23:23;;;;;;;7.93;1.83;;;12.50;99.90;;;;;;4872753;29;20102;-92
2023/10/14 08:25:54;;;;;;;10.20;2.00;;;12.80;99.90;;;;;;4859945;29;20057;-91
2023/10/14 08:28:23;;;;;;;9.15;2.10;;;12.90;99.90;;;;;;4857761;29;20033;-91
2023/10/14 08:30:52;;;;;;;5.72;1.75;;;12.90;99.90;;;;;;4857522;29;20047;-91
2023/10/14 08:33:20;;;;;;;10.90;2.17;;;13.00;99.90;;;;;;4857856;29;20036;-91
2023/10/14 08:35:48;;;;;;;9.07;2.08;;;13.10;99.90;;;;;;4867936;29;20048;-90
2023/10/14 08:38:14;;;;;;;7.95;2.03;;;12.50;99.90;;;;;;4871848;29;20067;-90
2023/10/14 08:40:41;;;;;;;7.07;1.88;;;13.20;99.90;;;;;;4855560;29;20465;-88
2023/10/14 08:43:16;;;;;;;7.50;1.77;;;13.20;99.90;;;;;;4840286;29;20032;-91
2023/10/14 08:45:48;;;;;;;7.82;1.52;;;13.20;99.90;;;;;;4841837;29;20092;-91
2023/10/14 08:48:24;;;;;;;8.40;2.10;;;13.30;99.90;;;;;;4869794;29;20037;-90
2023/10/14 08:50:55;;;;;;;7.60;2.53;;;13.30;99.90;;;;;;4857247;29;20044;-90
2023/10/14 08:53:22;;;;;;;6.18;1.75;;;13.40;99.90;;;;;;4853887;29;20040;-90
2023/10/14 08:55:48;;;;;;;8.23;1.95;;;13.40;99.90;;;;;;4872306;29;20049;-91
2023/10/14 08:58:14;;;;;;;7.80;1.70;;;13.40;99.90;;;;;;4855398;29;20056;-89
2023/10/14 09:00:46;;;;;;;6.90;1.77;;;13.50;99.90;;;;;;4870510;29;20043;-90
2023/10/14 09:03:12;;;;;;;6.68;2.03;;;13.60;99.90;;;;;;4860017;29;20375;-90
2023/10/14 09:05:46;;;;;;;6.47;1.60;;;13.60;99.90;;;;;;4858499;29;20048;-90
2023/10/14 09:08:17;;;;;;;8.02;2.25;;;13.60;99.90;;;;;;4843191;29;20037;-90
2023/10/14 09:10:44;;;;;;;6.63;1.85;;;13.70;99.90;;;;;;4857146;29;20039;-92
2023/10/14 09:13:12;;;;;;;4.20;1.40;;;13.80;99.90;;;;;;4874072;29;20447;-89
2023/10/14 09:15:43;;;;;;;8.32;1.80;;;13.80;99.90;;;;;;4860954;29;20048;-91
2023/10/14 09:18:27;;;;;;;8.80;2.33;;;13.90;99.90;;;;;;4845320;29;20052;-91
2023/10/14 09:20:54;;;;;;;7.38;2.10;;;14.00;99.90;;;;;;4847718;29;20602;-89
2023/10/14 09:23:39;;;;;;;6.55;1.63;;;13.90;99.90;;;;;;4876632;29;20049;-89
2023/10/14 09:26:06;;;;;;;8.35;1.83;;;13.80;99.90;;;;;;4877222;29;20041;-91
2023/10/14 09:28:34;;;;;;;6.95;1.73;;;13.80;99.90;;;;;;4876447;29;20498;-91
2023/10/14 09:31:03;;;;;;;8.10;1.85;;;14.00;99.90;;;;;;4860389;29;20374;-88
2023/10/14 09:33:31;;;;;;;7.03;1.50;;;13.90;99.90;;;;;;4876662;29;20037;-90
2023/10/14 09:36:04;;;;;;;7.18;1.90;;;13.60;99.90;;;;;;4859776;29;20383;-90
2023/10/14 09:38:32;;;;;;;5.07;1.50;;;13.30;99.90;;;;;;4875661;29;20499;-90
2023/10/14 09:41:10;;;;;;;6.07;1.50;;;13.00;99.90;;;;;;4845304;29;20048;-91
2023/10/14 09:43:42;;;;;;;9.20;1.90;;;12.90;99.90;;;;;;4875262;29;20045;-91
2023/10/14 09:46:11;;;;;;;8.55;1.90;;;12.70;99.90;;;;;;4846863;29;20075;-89
2023/10/14 09:48:37;;;;;;;10.00;2.15;;;12.80;99.90;;;;;;4877301;29;20116;-90
2023/10/14 09:51:12;;;;;;;6.68;1.80;;;13.00;99.90;;;;;;4861587;29;20042;-91
2023/10/14 09:53:38;;;;;;;6.32;1.70;;;13.10;99.90;;;;;;4875848;29;20048;-89
2023/10/14 09:56:12;;;;;;;9.05;1.92;;;13.20;99.90;;;;;;4879042;29;20047;-91
2023/10/14 09:58:44;;;;;;;6.95;1.85;;;13.50;99.90;;;;;;4875092;29;20056;-91
2023/10/14 10:01:15;;;;;;;8.45;1.50;;;13.60;99.90;;;;;;4872795;29;20092;-90
2023/10/14 10:03:49;;;;;;;7.53;1.85;;;13.60;99.90;;;;;;4859823;29;20119;-91
2023/10/14 10:06:46;;;;;;;8.13;1.80;;;14.60;99.90;;;;;;4865580;29;20073;-90
2023/10/14 10:09:17;;;;;;;8.85;2.00;;;13.80;99.90;;;;;;4857341;29;20506;-90
2023/10/14 10:11:46;;;;;;;6.22;1.63;;;14.00;99.90;;;;;;4860160;29;20041;-91
2023/10/14 10:14:16;;;;;;;7.22;1.70;;;14.00;99.90;;;;;;4861911;29;20443;-89
2023/10/14 10:16:42;;;;;;;7.43;1.60;;;13.90;99.90;;;;;;4845989;29;20140;-89
2023/10/14 10:19:10;;;;;;;5.07;1.50;;;13.60;99.90;;;;;;4860491;29;20199;-89
2023/10/14 10:21:43;;;;;;;7.15;1.88;;;;;;;;;;4860539;29;20108;-91
2023/10/14 10:24:18;;;;;;;7.97;1.75;;;13.20;99.90;;;;;;4860837;29;20204;-91
2023/10/14 10:27:02;;;;;;;6.80;1.70;;;13.00;99.90;;;;;;4871903;29;20051;-90
2023/10/14 10:29:35;;;;;;;6.25;1.60;;;12.80;99.90;;;;;;4874022;29;20080;-90
2023/10/14 10:32:20;;;;;;;7.55;1.60;;;12.70;99.90;;;;;;4860209;29;20036;-90
2023/10/14 10:35:05;;;;;;;8.05;1.80;;;12.90;99.90;;;;;;4862062;29;20123;-89
2023/10/14 10:37:39;;;;;;;7.88;1.58;;;13.00;99.90;;;;;;4860640;29;20040;-90
2023/10/14 10:40:11;;;;;;;6.70;1.58;;;13.10;99.90;;;;;;4855821;29;20041;-91
2023/10/14 10:42:58;;;;;;;6.10;1.48;;;13.30;99.90;;;;;;4861845;29;20056;-91
2023/10/14 10:45:31;;;;;;;7.68;1.60;;;13.40;99.90;;;;;;4859188;29;20045;-92
2023/10/14 10:47:59;;;;;;;6.32;1.73;;;13.50;99.90;;;;;;4847175;29;20109;-90
2023/10/14 10:50:34;;;;;;;5.47;1.52;;;13.60;99.90;;;;;;4858889;29;20048;-92
2023/10/14 10:53:10;;;;;;;5.75;1.50;;;13.70;99.90;;;;;;4859823;29;20052;-91
2023/10/14 10:55:38;;;;;;;6.40;1.90;;;13.50;99.90;;;;;;4860527;29;20559;-91
2023/10/14 10:58:05;;;;;;;9.88;2.28;;;13.90;99.90;;;;;;4878255;29;20040;-89
2023/10/14 11:00:32;;;;;;;5.93;1.60;;;14.00;99.90;;;;;;4857420;29;20121;-90
2023/10/14 11:03:02;;;;;;;7.45;1.73;;;14.10;99.90;;;;;;4859568;29;20415;-89
2023/10/14 11:05:31;;;;;;;5.13;1.60;;;14.30;99.90;;;;;;4859470;29;20045;-89
2023/10/14 11:07:57;;;;;;;6.95;1.90;;;14.40;99.90;;;;;;4865775;29;20067;-90
2023/10/14 11:10:25;;;;;;;5.75;1.70;;;;;;;;;;4860945;29;20047;-91
2023/10/14 11:12:52;;;;;;;8.70;1.90;;;13.90;99.90;;;;;;4861059;29;20049;-90
2023/10/14 11:15:21;;;;;;;7.07;1.90;;;13.80;99.90;;;;;;4861415;29;20052;-89
2023/10/14 11:17:57;;;;;;;7.97;1.90;;;13.40;99.90;;;;;;4830517;29;20502;-89
2023/10/14 11:20:35;;;;;;;8.07;1.85;;;13.00;99.90;;;;;;4873862;29;20048;-89
2023/10/14 11:23:04;;;;;;;8.15;1.95;;;12.80;99.90;;;;;;4876316;29;20498;-90
2023/10/14 11:25:30;;;;;;;7.57;1.75;;;12.60;99.90;;;;;;4843990;29;20076;-89
2023/10/14 11:27:57;;;;;;;10.10;2.28;;;12.60;99.90;;;;;;4860716;29;20048;-91
2023/10/14 11:30:27;;;;;;;8.75;2.17;;;12.80;99.90;;;;;;4857862;29;20059;-89
2023/10/14 11:32:53;;;;;;;6.88;1.85;;;13.00;99.90;;;;;;4860563;29;20586;-92
2023/10/14 11:35:21;;;;;;;7.07;1.70;;;13.20;99.90;;;;;;4860658;29;20040;-93
2023/10/14 11:38:02;;;;;;;9.07;2.17;;;13.30;99.90;;;;;;4864262;29;20044;-91
2023/10/14 11:40:35;;;;;;;8.85;2.00;;;13.00;99.90;;;;;;4862469;29;20452;-90
2023/10/14 11:43:01;;;;;;;8.02;2.08;;;12.80;99.90;;;;;;4853565;29;20044;-90
2023/10/14 11:45:27;;;;;;;7.35;1.95;;;12.70;99.90;;;;;;4855176;29;20053;-90
2023/10/14 11:47:53;;;;;;;6.25;1.90;;;12.60;99.90;;;;;;4842288;29;20510;-89
2023/10/14 11:50:19;;;;;;;5.35;1.50;;;12.50;99.90;;;;;;4871781;29;20120;-90
2023/10/14 11:52:48;;;;;;;7.32;2.28;;;13.20;99.90;;;;;;4842382;29;20037;-89
2023/10/14 11:55:14;;;;;;;5.75;1.65;;;12.40;99.90;;;;;;4871063;29;20045;-90
2023/10/14 11:57:45;;;;;;;7.57;2.00;;;12.30;99.90;;;;;;4841890;29;20063;-90
2023/10/14 12:00:16;;;;;;;7.18;1.80;;;11.80;99.90;;;;;;4857425;29;20056;-89
2023/10/14 12:02:45;;;;;;;7.28;1.88;;;12.50;99.90;;;;;;4844166;29;20051;-89
2023/10/14 12:05:11;;;;;;;7.60;2.00;;;12.70;99.90;;;;;;4872473;29;20093;-89
2023/10/14 12:07:37;;;;;;;8.60;2.22;;;12.90;99.90;;;;;;4859637;29;20052;-89
2023/10/14 12:10:08;;;;;;;7.60;2.10;;;13.20;99.90;;;;;;4871715;29;20059;-89
2023/10/14 12:12:38;;;;;;;8.80;2.00;;;13.10;99.90;;;;;;4842346;29;20044;-89
2023/10/14 12:15:07;;;;;;;9.70;2.15;;;13.00;99.90;;;;;;4845971;29;20036;-89
2023/10/14 12:17:34;;;;;;;7.22;2.28;;;12.50;99.90;;;;;;4856681;29;20037;-93
2023/10/14 12:20:10;;;;;;;8.55;2.40;;;12.70;99.90;;;;;;4858243;29;20087;-90
2023/10/14 12:22:37;;;;;;;8.75;1.90;;;12.80;99.90;;;;;;4875269;29;20051;-90
2023/10/14 12:25:13;;;;;;;7.85;1.77;;;12.90;99.90;;;;;;4839575;29;20061;-89
2023/10/14 12:27:43;;;;;;;8.35;2.35;;;12.90;99.90;;;;;;4841160;29;20052;-90
2023/10/14 12:30:28;;;;;;;8.93;2.13;;;11.60;99.90;;;;;;4836902;29;20044;-90
2023/10/14 12:32:54;;;;;;;9.60;2.33;;;13.20;99.90;;;;;;4825666;29;20033;-92
2023/10/14 12:35:27;;;;;;;6.88;1.77;;;13.30;99.90;;;;;;4870840;29;20033;-89
2023/10/14 12:37:55;;;;;;;8.25;2.08;;;13.30;99.90;;;;;;4827825;29;20041;-89
2023/10/14 12:40:29;;;;;;;7.00;1.90;;;13.40;99.90;;;;;;4849179;29;20077;-88
2023/10/14 12:43:02;;;;;;;8.32;2.00;;;13.40;99.90;;;;;;4854913;29;20076;-91
2023/10/14 12:45:28;;;;;;;7.60;2.00;;;13.50;99.90;;;;;;4842513;29;20273;-90
2023/10/14 12:48:09;;;;;;;6.30;1.58;;;13.60;99.90;;;;;;4836971;29;20045;-90
2023/10/14 12:50:40;;;;;;;;;;;13.60;99.90;;;;;;4845720;29;20048;-89
2023/10/14 12:53:08;;;;;;;6.55;1.63;;;13.70;99.90;;;;;;4856687;29;19919;-91
2023/10/14 12:55:36;;;;;;;6.95;1.80;;;13.70;99.90;;;;;;4843741;29;20049;-90
2023/10/14 12:58:05;;;;;;;7.35;1.95;;;13.70;99.90;;;;;;4857324;29;20509;-89
2023/10/14 13:00:31;;;;;;;6.30;1.90;;;13.70;99.90;;;;;;4829439;29;20041;-90
2023/10/14 13:03:01;;;;;;;7.60;2.10;;;13.70;99.90;;;;;;4837608;29;20081;-90
2023/10/14 13:05:30;;;;;;;7.85;2.20;;;13.70;99.90;;;;;;4816476;29;20521;-92
2023/10/14 13:07:56;;;;;;;5.43;1.63;;;13.60;99.90;;;;;;4843334;29;20526;-91
2023/10/14 13:10:23;;;;;;;11.43;2.22;;;13.50;99.90;;;;;;4842888;29;20049;-91
2023/10/14 13:12:54;;;;;;;6.63;1.70;;;13.60;99.90;;;;;;4828654;29;20048;-94
2023/10/14 13:15:25;;;;;;;10.05;2.47;;;13.50;99.90;;;;;;4840454;29;20105;-91
2023/10/14 13:18:05;;;;;;;8.50;1.92;;;13.40;99.90;;;;;;4856375;29;20064;-90
2023/10/14 13:20:35;;;;;;;6.63;1.88;;;13.10;99.90;;;;;;4844513;29;20041;-93
2023/10/14 13:23:07;;;;;;;5.82;1.60;;;13.30;99.90;;;;;;4843630;29;20049;-91
2023/10/14 13:25:36;;;;;;;7.97;1.83;;;13.10;99.90;;;;;;4857089;29;20063;-91
2023/10/14 13:28:08;;;;;;;5.45;1.67;;;13.20;99.90;;;;;;4860427;29;20040;-91
2023/10/14 13:30:38;;;;;;;7.40;2.03;;;13.20;99.90;;;;;;4874653;29;20048;-92
2023/10/14 13:33:05;;;;;;;7.32;1.70;;;13.10;99.90;;;;;;4858507;29;20040;-91
2023/10/14 13:35:33;;;;;;;7.43;1.70;;;12.90;99.90;;;;;;4864680;29;20048;-91
2023/10/14 13:38:00;;;;;;;8.68;1.70;;;12.10;99.90;;;;;;4846577;29;20101;-91
2023/10/14 13:40:26;;;;;;;7.07;2.00;;;12.80;99.90;;;;;;4860747;29;20044;-92
2023/10/14 13:42:53;;;;;;;7.95;1.83;;;12.90;99.90;;;;;;4863510;29;20120;-92